sensor_id;sensor_type;location;lat;lon;timestamp;temperature;humidity
3086;DHT22;52812;48.960;9.108;2023-04-08T00:00:17;7.90;99.90
3086;DHT22;52812;48.960;9.108;2023-04-08T00:02:42;7.80;99.90
3086;DHT22;52812;48.960;9.108;2023-04-08T00:05:08;7.80;99.90
3086;DHT22;52812;48.960;9.108;2023-04-08T00:07:34;7.80;99.90
3086;DHT22;52812;48.960;9.108;2023-04-08T00:10:00;7.80;99.90
3086;DHT22;52812;48.960;9.108;2023-04-08T00:12:25;7.80;99.90
3086;DHT22;52812;48.960;9.108;2023-04-08T00:14:51;7.80;99.90
3086;DHT22;52812;48.960;9.108;2023-04-08T00:17:17;7.80;99.90
3086;DHT22;52812;48.960;9.108;2023-04-08T00:19:42;7.80;99.90
3086;DHT22;52812;48.960;9.108;2023-04-08T00:22:09;7.90;99.90
3086;DHT22;52812;48.960;9.108;2023-04-08T00:24:34;7.80;99.90
3086;DHT22;52812;48.960;9.108;2023-04-08T00:27:00;7.80;99.90
3086;DHT22;52812;48.960;9.108;2023-04-08T00:29:27;7.90;99.90
3086;DHT22;52812;48.960;9.108;2023-04-08T00:31:53;7.80;99.90
3086;DHT22;52812;48.960;9.108;2023-04-08T00:34:18;7.80;99.90
3086;DHT22;52812;48.960;9.108;2023-04-08T00:36:44;7.80;99.90
3086;DHT22;52812;48.960;9.108;2023-04-08T00:39:12;7.80;99.90
3086;DHT22;52812;48.960;9.108;2023-04-08T00:41:38;7.80;99.90
3086;DHT22;52812;48.960;9.108;2023-04-08T00:44:03;7.80;99.90
3086;DHT22;52812;48.960;9.108;2023-04-08T00:46:30;7.90;99.90
3086;DHT22;52812;48.960;9.108;2023-04-08T00:48:56;7.90;99.90
3086;DHT22;52812;48.960;9.108;2023-04-08T00:51:21;7.90;99.90
3086;DHT22;52812;48.960;9.108;2023-04-08T00:53:47;7.90;99.90
3086;DHT22;52812;48.960;9.108;2023-04-08T00:56:12;7.90;99.90
3086;DHT22;52812;48.960;9.108;2023-04-08T00:58:38;7.80;99.90
3086;DHT22;52812;48.960;9.108;2023-04-08T01:01:13;7.80;99.90
3086;DHT22;52812;48.960;9.108;2023-04-08T01:06:48;7.80;99.90
3086;DHT22;52812;48.960;9.108;2023-04-08T01:09:18;7.80;99.90
3086;DHT22;52812;48.960;9.108;2023-04-08T01:11:49;7.80;99.90
3086;DHT22;52812;48.960;9.108;2023-04-08T01:14:19;7.80;99.90
3086;DHT22;52812;48.960;9.108;2023-04-08T01:16:45;7.80;99.90
3086;DHT22;52812;48.960;9.108;2023-04-08T01:19:18;7.80;99.90
3086;DHT22;52812;48.960;9.108;2023-04-08T01:21:47;7.80;99.90
3086;DHT22;52812;48.960;9.108;2023-04-08T01:24:22;7.80;99.90
3086;DHT22;52812;48.960;9.108;2023-04-08T01:26:50;7.70;99.90
3086;DHT22;52812;48.960;9.108;2023-04-08T01:29:16;7.80;99.90
3086;DHT22;52812;48.960;9.108;2023-04-08T01:31:44;7.70;99.90
3086;DHT22;52812;48.960;9.108;2023-04-08T01:34:11;7.70;99.90
3086;DHT22;52812;48.960;9.108;2023-04-08T01:36:38;7.70;99.90
3086;DHT22;52812;48.960;9.108;2023-04-08T01:39:05;7.70;99.90
3086;DHT22;52812;48.960;9.108;2023-04-08T01:41:33;7.70;99.90
3086;DHT22;52812;48.960;9.108;2023-04-08T01:44:01;7.60;99.90
3086;DHT22;52812;48.960;9.108;2023-04-08T01:46:28;7.60;99.90
3086;DHT22;52812;48.960;9.108;2023-04-08T01:48:56;7.60;99.90
3086;DHT22;52812;48.960;9.108;2023-04-08T01:51:23;7.50;99.90
3086;DHT22;52812;48.960;9.108;2023-04-08T01:53:49;7.50;99.90
3086;DHT22;52812;48.960;9.108;2023-04-08T01:56:15;7.50;99.90
3086;DHT22;52812;48.960;9.108;2023-04-08T01:58:45;7.40;99.90
3086;DHT22;52812;48.960;9.108;2023-04-08T02:01:15;7.40;99.90
3086;DHT22;52812;48.960;9.108;2023-04-08T02:03:43;7.40;99.90
3086;DHT22;52812;48.960;9.108;2023-04-08T02:06:09;7.30;99.90
3086;DHT22;52812;48.960;9.108;2023-04-08T02:08:35;7.20;99.90
3086;DHT22;52812;48.960;9.108;2023-04-08T02:11:01;7.20;99.90
3086;DHT22;52812;48.960;9.108;2023-04-08T02:13:28;7.10;99.90
3086;DHT22;52812;48.960;9.108;2023-04-08T02:16:12;7.10;99.90
3086;DHT22;52812;48.960;9.108;2023-04-08T02:18:42;7.00;99.90
3086;DHT22;52812;48.960;9.108;2023-04-08T02:23:37;6.80;99.90
3086;DHT22;52812;48.960;9.108;2023-04-08T02:26:07;6.80;99.90
3086;DHT22;52812;48.960;9.108;2023-04-08T02:28:38;6.70;99.90
3086;DHT22;52812;48.960;9.108;2023-04-08T02:31:05;6.70;99.90
3086;DHT22;52812;48.960;9.108;2023-04-08T02:33:33;6.70;99.90
3086;DHT22;52812;48.960;9.108;2023-04-08T02:36:00;6.70;99.90
3086;DHT22;52812;48.960;9.108;2023-04-08T02:38:27;6.70;99.90
3086;DHT22;52812;48.960;9.108;2023-04-08T02:40:55;6.70;99.90
3086;DHT22;52812;48.960;9.108;2023-04-08T02:43:21;6.70;99.90
3086;DHT22;52812;48.960;9.108;2023-04-08T02:45:51;6.70;99.90
3086;DHT22;52812;48.960;9.108;2023-04-08T02:48:16;6.80;99.90
3086;DHT22;52812;48.960;9.108;2023-04-08T02:50:42;6.80;99.90
3086;DHT22;52812;48.960;9.108;2023-04-08T02:53:08;6.80;99.90
3086;DHT22;52812;48.960;9.108;2023-04-08T02:55:34;6.80;99.90
3086;DHT22;52812;48.960;9.108;2023-04-08T02:58:00;6.70;99.90
3086;DHT22;52812;48.960;9.108;2023-04-08T03:00:25;6.60;99.90
3086;DHT22;52812;48.960;9.108;2023-04-08T03:02:51;6.60;99.90
3086;DHT22;52812;48.960;9.108;2023-04-08T03:05:17;6.50;99.90
3086;DHT22;52812;48.960;9.108;2023-04-08T03:07:42;6.60;99.90
3086;DHT22;52812;48.960;9.108;2023-04-08T03:10:08;6.60;99.90
3086;DHT22;52812;48.960;9.108;2023-04-08T03:12:34;6.60;99.90
3086;DHT22;52812;48.960;9.108;2023-04-08T03:14:59;6.60;99.90
3086;DHT22;52812;48.960;9.108;2023-04-08T03:17:26;6.60;99.90
3086;DHT22;52812;48.960;9.108;2023-04-08T03:19:51;6.60;99.90
3086;DHT22;52812;48.960;9.108;2023-04-08T03:22:18;6.60;99.90
3086;DHT22;52812;48.960;9.108;2023-04-08T03:24:43;6.60;99.90
3086;DHT22;52812;48.960;9.108;2023-04-08T03:27:09;6.60;99.90
3086;DHT22;52812;48.960;9.108;2023-04-08T03:29:34;6.50;99.90
3086;DHT22;52812;48.960;9.108;2023-04-08T03:32:00;6.50;99.90
3086;DHT22;52812;48.960;9.108;2023-04-08T03:34:25;6.50;99.90
3086;DHT22;52812;48.960;9.108;2023-04-08T03:36:51;6.50;99.90
3086;DHT22;52812;48.960;9.108;2023-04-08T03:39:16;6.50;99.90
3086;DHT22;52812;48.960;9.108;2023-04-08T03:41:42;6.50;99.90
3086;DHT22;52812;48.960;9.108;2023-04-08T03:44:08;6.40;99.90
3086;DHT22;52812;48.960;9.108;2023-04-08T03:46:33;6.50;99.90
3086;DHT22;52812;48.960;9.108;2023-04-08T03:48:59;6.40;99.90
3086;DHT22;52812;48.960;9.108;2023-04-08T03:51:24;6.40;99.90
3086;DHT22;52812;48.960;9.108;2023-04-08T03:53:50;6.40;99.90
3086;DHT22;52812;48.960;9.108;2023-04-08T03:56:16;6.30;99.90
3086;DHT22;52812;48.960;9.108;2023-04-08T03:58:41;6.20;99.90
3086;DHT22;52812;48.960;9.108;2023-04-08T04:01:07;6.10;99.90
3086;DHT22;52812;48.960;9.108;2023-04-08T04:03:32;6.10;99.90
3086;DHT22;52812;48.960;9.108;2023-04-08T04:05:58;6.10;99.90
3086;DHT22;52812;48.960;9.108;2023-04-08T04:08:24;6.00;99.90
3086;DHT22;52812;48.960;9.108;2023-04-08T04:10:50;6.00;99.90
3086;DHT22;52812;48.960;9.108;2023-04-08T04:13:16;5.90;99.90
3086;DHT22;52812;48.960;9.108;2023-04-08T04:15:41;5.80;99.90
3086;DHT22;52812;48.960;9.108;2023-04-08T04:18:07;5.80;99.90
3086;DHT22;52812;48.960;9.108;2023-04-08T04:20:33;5.80;99.90
3086;DHT22;52812;48.960;9.108;2023-04-08T04:22:58;5.70;99.90
3086;DHT22;52812;48.960;9.108;2023-04-08T04:25:24;5.70;99.90
3086;DHT22;52812;48.960;9.108;2023-04-08T04:27:50;5.60;99.90
3086;DHT22;52812;48.960;9.108;2023-04-08T04:30:15;5.70;99.90
3086;DHT22;52812;48.960;9.108;2023-04-08T04:32:41;5.60;99.90
3086;DHT22;52812;48.960;9.108;2023-04-08T04:35:09;5.60;99.90
3086;DHT22;52812;48.960;9.108;2023-04-08T04:37:34;5.50;99.90
3086;DHT22;52812;48.960;9.108;2023-04-08T04:40:01;5.40;99.90
3086;DHT22;52812;48.960;9.108;2023-04-08T04:42:26;5.40;99.90
3086;DHT22;52812;48.960;9.108;2023-04-08T04:44:52;5.40;99.90
3086;DHT22;52812;48.960;9.108;2023-04-08T04:47:18;5.40;99.90
3086;DHT22;52812;48.960;9.108;2023-04-08T04:49:44;5.40;99.90
3086;DHT22;52812;48.960;9.108;2023-04-08T04:52:10;5.30;99.90
3086;DHT22;52812;48.960;9.108;2023-04-08T04:54:36;5.30;99.90
3086;DHT22;52812;48.960;9.108;2023-04-08T04:57:01;5.30;99.90
3086;DHT22;52812;48.960;9.108;2023-04-08T04:59:27;5.20;99.90
3086;DHT22;52812;48.960;9.108;2023-04-08T05:01:52;5.20;99.90
3086;DHT22;52812;48.960;9.108;2023-04-08T05:04:18;5.20;99.90
3086;DHT22;52812;48.960;9.108;2023-04-08T05:06:43;5.20;99.90
3086;DHT22;52812;48.960;9.108;2023-04-08T05:09:09;5.10;99.90
3086;DHT22;52812;48.960;9.108;2023-04-08T05:11:34;5.00;99.90
3086;DHT22;52812;48.960;9.108;2023-04-08T05:14:00;4.90;99.90
3086;DHT22;52812;48.960;9.108;2023-04-08T05:16:25;5.00;99.90
3086;DHT22;52812;48.960;9.108;2023-04-08T05:18:51;5.00;99.90
3086;DHT22;52812;48.960;9.108;2023-04-08T05:21:16;5.00;99.90
3086;DHT22;52812;48.960;9.108;2023-04-08T05:23:42;5.00;99.90
3086;DHT22;52812;48.960;9.108;2023-04-08T05:26:07;5.00;99.90
3086;DHT22;52812;48.960;9.108;2023-04-08T05:28:34;5.10;99.90
3086;DHT22;52812;48.960;9.108;2023-04-08T05:30:59;5.10;99.90
3086;DHT22;52812;48.960;9.108;2023-04-08T05:33:25;5.10;99.90
3086;DHT22;52812;48.960;9.108;2023-04-08T05:35:50;5.10;99.90
3086;DHT22;52812;48.960;9.108;2023-04-08T05:38:17;5.10;99.90
3086;DHT22;52812;48.960;9.108;2023-04-08T05:40:43;5.10;99.90
3086;DHT22;52812;48.960;9.108;2023-04-08T05:43:08;5.10;99.90
3086;DHT22;52812;48.960;9.108;2023-04-08T05:45:34;5.20;99.90
3086;DHT22;52812;48.960;9.108;2023-04-08T05:48:00;5.20;99.90
3086;DHT22;52812;48.960;9.108;2023-04-08T05:50:26;5.30;99.90
3086;DHT22;52812;48.960;9.108;2023-04-08T05:52:51;5.40;99.90
3086;DHT22;52812;48.960;9.108;2023-04-08T05:55:17;5.50;99.90
3086;DHT22;52812;48.960;9.108;2023-04-08T05:57:42;5.60;99.90
3086;DHT22;52812;48.960;9.108;2023-04-08T06:00:09;5.70;99.90
3086;DHT22;52812;48.960;9.108;2023-04-08T06:02:35;5.70;99.90
3086;DHT22;52812;48.960;9.108;2023-04-08T06:05:01;5.80;99.90
3086;DHT22;52812;48.960;9.108;2023-04-08T06:07:28;5.90;99.90
3086;DHT22;52812;48.960;9.108;2023-04-08T06:09:53;5.90;99.90
3086;DHT22;52812;48.960;9.108;2023-04-08T06:12:19;6.00;99.90
3086;DHT22;52812;48.960;9.108;2023-04-08T06:14:45;6.10;99.90
3086;DHT22;52812;48.960;9.108;2023-04-08T06:17:11;6.20;99.90
3086;DHT22;52812;48.960;9.108;2023-04-08T06:19:36;6.30;99.90
3086;DHT22;52812;48.960;9.108;2023-04-08T06:22:02;6.40;99.90
3086;DHT22;52812;48.960;9.108;2023-04-08T06:24:27;6.50;99.90
3086;DHT22;52812;48.960;9.108;2023-04-08T06:26:54;6.50;99.90
3086;DHT22;52812;48.960;9.108;2023-04-08T06:29:21;6.50;99.90
3086;DHT22;52812;48.960;9.108;2023-04-08T06:31:47;6.60;99.90
3086;DHT22;52812;48.960;9.108;2023-04-08T06:34:13;6.60;99.90
3086;DHT22;52812;48.960;9.108;2023-04-08T06:36:38;6.70;99.90
3086;DHT22;52812;48.960;9.108;2023-04-08T06:39:04;6.80;99.90
3086;DHT22;52812;48.960;9.108;2023-04-08T06:41:30;6.90;99.90
3086;DHT22;52812;48.960;9.108;2023-04-08T06:43:55;7.10;99.90
3086;DHT22;52812;48.960;9.108;2023-04-08T06:46:21;7.30;99.90
3086;DHT22;52812;48.960;9.108;2023-04-08T06:48:46;7.50;99.90
3086;DHT22;52812;48.960;9.108;2023-04-08T06:51:12;7.70;99.90
3086;DHT22;52812;48.960;9.108;2023-04-08T06:53:37;7.80;99.90
3086;DHT22;52812;48.960;9.108;2023-04-08T06:56:03;7.80;99.90
3086;DHT22;52812;48.960;9.108;2023-04-08T06:58:29;8.00;99.90
3086;DHT22;52812;48.960;9.108;2023-04-08T07:00:54;8.00;99.90
3086;DHT22;52812;48.960;9.108;2023-04-08T07:03:20;8.30;99.90
3086;DHT22;52812;48.960;9.108;2023-04-08T07:05:46;8.40;99.90
3086;DHT22;52812;48.960;9.108;2023-04-08T07:08:12;8.50;99.90
3086;DHT22;52812;48.960;9.108;2023-04-08T07:10:38;8.70;99.90
3086;DHT22;52812;48.960;9.108;2023-04-08T07:13:04;8.60;99.90
3086;DHT22;52812;48.960;9.108;2023-04-08T07:15:29;8.70;99.90
3086;DHT22;52812;48.960;9.108;2023-04-08T07:17:55;8.80;99.90
3086;DHT22;52812;48.960;9.108;2023-04-08T07:20:21;8.80;99.90
3086;DHT22;52812;48.960;9.108;2023-04-08T07:22:47;8.90;99.90
3086;DHT22;52812;48.960;9.108;2023-04-08T07:25:13;9.00;99.90
3086;DHT22;52812;48.960;9.108;2023-04-08T07:27:38;9.00;99.90
3086;DHT22;52812;48.960;9.108;2023-04-08T07:30:05;9.10;99.90
3086;DHT22;52812;48.960;9.108;2023-04-08T07:32:32;9.10;99.90
3086;DHT22;52812;48.960;9.108;2023-04-08T07:34:58;9.10;99.90
3086;DHT22;52812;48.960;9.108;2023-04-08T07:37:25;9.20;99.90
3086;DHT22;52812;48.960;9.108;2023-04-08T07:39:50;9.00;99.90
3086;DHT22;52812;48.960;9.108;2023-04-08T07:42:16;9.10;99.90
3086;DHT22;52812;48.960;9.108;2023-04-08T07:44:42;9.30;99.90
3086;DHT22;52812;48.960;9.108;2023-04-08T07:47:08;9.30;99.90
3086;DHT22;52812;48.960;9.108;2023-04-08T07:49:34;9.20;99.90
3086;DHT22;52812;48.960;9.108;2023-04-08T07:51:59;9.20;99.90
3086;DHT22;52812;48.960;9.108;2023-04-08T07:54:25;9.30;99.90
3086;DHT22;52812;48.960;9.108;2023-04-08T07:56:51;9.40;99.90
3086;DHT22;52812;48.960;9.108;2023-04-08T07:59:16;9.50;99.90
3086;DHT22;52812;48.960;9.108;2023-04-08T08:01:42;9.60;99.90
3086;DHT22;52812;48.960;9.108;2023-04-08T08:04:07;9.50;99.90
3086;DHT22;52812;48.960;9.108;2023-04-08T08:06:33;9.60;99.90
3086;DHT22;52812;48.960;9.108;2023-04-08T08:08:59;9.80;99.90
3086;DHT22;52812;48.960;9.108;2023-04-08T08:11:25;10.00;99.90
3086;DHT22;52812;48.960;9.108;2023-04-08T08:13:52;10.20;99.90
3086;DHT22;52812;48.960;9.108;2023-04-08T08:16:18;10.30;99.90
3086;DHT22;52812;48.960;9.108;2023-04-08T08:18:43;10.10;99.90
3086;DHT22;52812;48.960;9.108;2023-04-08T08:21:09;10.40;99.90
3086;DHT22;52812;48.960;9.108;2023-04-08T08:23:35;10.40;99.90
3086;DHT22;52812;48.960;9.108;2023-04-08T08:26:06;10.50;99.90
3086;DHT22;52812;48.960;9.108;2023-04-08T08:28:34;10.50;99.90
3086;DHT22;52812;48.960;9.108;2023-04-08T08:30:59;10.50;99.90
3086;DHT22;52812;48.960;9.108;2023-04-08T08:33:25;10.50;99.90
3086;DHT22;52812;48.960;9.108;2023-04-08T08:35:51;10.30;99.90
3086;DHT22;52812;48.960;9.108;2023-04-08T08:38:17;10.30;99.90
3086;DHT22;52812;48.960;9.108;2023-04-08T08:40:43;10.50;99.90
3086;DHT22;52812;48.960;9.108;2023-04-08T08:43:09;10.40;99.90
3086;DHT22;52812;48.960;9.108;2023-04-08T08:45:39;10.50;99.90
3086;DHT22;52812;48.960;9.108;2023-04-08T08:48:06;10.40;99.90
3086;DHT22;52812;48.960;9.108;2023-04-08T08:50:33;10.30;99.90
3086;DHT22;52812;48.960;9.108;2023-04-08T08:52:59;10.40;99.90
3086;DHT22;52812;48.960;9.108;2023-04-08T08:55:25;10.50;99.90
3086;DHT22;52812;48.960;9.108;2023-04-08T08:57:51;10.80;99.90
3086;DHT22;52812;48.960;9.108;2023-04-08T09:00:17;11.00;99.90
3086;DHT22;52812;48.960;9.108;2023-04-08T09:02:43;11.00;99.90
3086;DHT22;52812;48.960;9.108;2023-04-08T09:05:08;11.10;99.90
3086;DHT22;52812;48.960;9.108;2023-04-08T09:07:36;11.00;99.90
3086;DHT22;52812;48.960;9.108;2023-04-08T09:10:02;11.30;99.90
3086;DHT22;52812;48.960;9.108;2023-04-08T09:12:28;11.30;99.90
3086;DHT22;52812;48.960;9.108;2023-04-08T09:15:06;11.40;99.90
3086;DHT22;52812;48.960;9.108;2023-04-08T09:17:37;11.50;99.90
3086;DHT22;52812;48.960;9.108;2023-04-08T09:22:56;11.70;99.90
3086;DHT22;52812;48.960;9.108;2023-04-08T09:25:26;11.90;99.90
3086;DHT22;52812;48.960;9.108;2023-04-08T09:27:52;12.10;99.90
3086;DHT22;52812;48.960;9.108;2023-04-08T09:30:20;12.00;99.90
3086;DHT22;52812;48.960;9.108;2023-04-08T09:32:49;11.90;99.90
3086;DHT22;52812;48.960;9.108;2023-04-08T09:35:17;11.80;99.90
3086;DHT22;52812;48.960;9.108;2023-04-08T09:37:43;11.80;99.90
3086;DHT22;52812;48.960;9.108;2023-04-08T09:40:09;12.00;99.90
3086;DHT22;52812;48.960;9.108;2023-04-08T09:42:39;12.00;99.90
3086;DHT22;52812;48.960;9.108;2023-04-08T09:45:06;11.80;99.90
3086;DHT22;52812;48.960;9.108;2023-04-08T09:47:41;11.60;99.90
3086;DHT22;52812;48.960;9.108;2023-04-08T09:50:08;11.40;99.90
3086;DHT22;52812;48.960;9.108;2023-04-08T09:52:43;11.60;99.90
3086;DHT22;52812;48.960;9.108;2023-04-08T09:55:10;11.50;99.90
3086;DHT22;52812;48.960;9.108;2023-04-08T10:00:41;11.90;99.90
3086;DHT22;52812;48.960;9.108;2023-04-08T10:05:49;11.80;99.90
3086;DHT22;52812;48.960;9.108;2023-04-08T10:08:17;11.70;99.90
3086;DHT22;52812;48.960;9.108;2023-04-08T10:10:43;11.40;99.90
3086;DHT22;52812;48.960;9.108;2023-04-08T10:13:09;11.50;99.90
3086;DHT22;52812;48.960;9.108;2023-04-08T10:15:35;11.30;99.90
3086;DHT22;52812;48.960;9.108;2023-04-08T10:22:59;11.20;99.90
3086;DHT22;52812;48.960;9.108;2023-04-08T10:25:32;11.30;99.90
3086;DHT22;52812;48.960;9.108;2023-04-08T10:30:48;11.50;99.90
3086;DHT22;52812;48.960;9.108;2023-04-08T10:38:27;11.80;99.90
3086;DHT22;52812;48.960;9.108;2023-04-08T10:40:53;11.80;99.90
3086;DHT22;52812;48.960;9.108;2023-04-08T10:43:19;11.80;99.90
3086;DHT22;52812;48.960;9.108;2023-04-08T10:45:45;11.60;99.90
3086;DHT22;52812;48.960;9.108;2023-04-08T10:48:21;11.50;99.90
3086;DHT22;52812;48.960;9.108;2023-04-08T10:50:59;11.30;99.90
3086;DHT22;52812;48.960;9.108;2023-04-08T10:53:36;11.40;99.90
3086;DHT22;52812;48.960;9.108;2023-04-08T10:56:12;11.40;99.90
3086;DHT22;52812;48.960;9.108;2023-04-08T11:01:14;11.50;99.90
3086;DHT22;52812;48.960;9.108;2023-04-08T11:03:41;11.50;99.90
3086;DHT22;52812;48.960;9.108;2023-04-08T11:06:07;11.70;99.90
3086;DHT22;52812;48.960;9.108;2023-04-08T11:08:34;11.80;99.90
3086;DHT22;52812;48.960;9.108;2023-04-08T11:11:01;11.70;99.90
3086;DHT22;52812;48.960;9.108;2023-04-08T11:13:27;11.50;99.90
3086;DHT22;52812;48.960;9.108;2023-04-08T11:15:57;11.40;99.90
3086;DHT22;52812;48.960;9.108;2023-04-08T11:18:24;11.30;99.90
3086;DHT22;52812;48.960;9.108;2023-04-08T11:20:51;11.20;99.90
3086;DHT22;52812;48.960;9.108;2023-04-08T11:23:17;11.30;99.90
3086;DHT22;52812;48.960;9.108;2023-04-08T11:25:44;11.00;99.90
3086;DHT22;52812;48.960;9.108;2023-04-08T11:28:10;10.90;99.90
3086;DHT22;52812;48.960;9.108;2023-04-08T11:30:40;10.90;99.90
3086;DHT22;52812;48.960;9.108;2023-04-08T11:33:06;11.00;99.90
3086;DHT22;52812;48.960;9.108;2023-04-08T11:35:32;11.00;99.90
3086;DHT22;52812;48.960;9.108;2023-04-08T11:37:58;11.00;99.90
3086;DHT22;52812;48.960;9.108;2023-04-08T11:40:24;10.90;99.90
3086;DHT22;52812;48.960;9.108;2023-04-08T11:42:51;10.90;99.90
3086;DHT22;52812;48.960;9.108;2023-04-08T11:45:19;10.80;99.90
3086;DHT22;52812;48.960;9.108;2023-04-08T11:47:46;10.80;99.90
3086;DHT22;52812;48.960;9.108;2023-04-08T11:50:24;10.80;99.90
3086;DHT22;52812;48.960;9.108;2023-04-08T11:52:51;10.80;99.90
3086;DHT22;52812;48.960;9.108;2023-04-08T11:55:28;10.80;99.90
3086;DHT22;52812;48.960;9.108;2023-04-08T11:57:55;10.80;99.90
3086;DHT22;52812;48.960;9.108;2023-04-08T12:00:21;10.90;99.90
3086;DHT22;52812;48.960;9.108;2023-04-08T12:02:47;11.00;99.90
3086;DHT22;52812;48.960;9.108;2023-04-08T12:05:14;10.90;99.90
3086;DHT22;52812;48.960;9.108;2023-04-08T12:07:40;10.90;99.90
3086;DHT22;52812;48.960;9.108;2023-04-08T12:10:07;11.10;99.90
3086;DHT22;52812;48.960;9.108;2023-04-08T12:12:33;11.20;99.90
3086;DHT22;52812;48.960;9.108;2023-04-08T12:14:59;11.20;99.90
3086;DHT22;52812;48.960;9.108;2023-04-08T12:17:24;11.30;99.90
3086;DHT22;52812;48.960;9.108;2023-04-08T12:19:50;11.40;99.90
3086;DHT22;52812;48.960;9.108;2023-04-08T12:22:16;11.50;99.90
3086;DHT22;52812;48.960;9.108;2023-04-08T12:24:41;11.60;99.90
3086;DHT22;52812;48.960;9.108;2023-04-08T12:27:07;11.50;99.90
3086;DHT22;52812;48.960;9.108;2023-04-08T12:29:32;11.50;99.90
3086;DHT22;52812;48.960;9.108;2023-04-08T12:31:58;11.60;99.90
3086;DHT22;52812;48.960;9.108;2023-04-08T12:34:24;11.60;99.90
3086;DHT22;52812;48.960;9.108;2023-04-08T12:36:50;11.50;99.90
3086;DHT22;52812;48.960;9.108;2023-04-08T12:39:15;11.40;99.90
3086;DHT22;52812;48.960;9.108;2023-04-08T12:41:41;11.40;99.90
3086;DHT22;52812;48.960;9.108;2023-04-08T12:44:06;11.60;99.90
3086;DHT22;52812;48.960;9.108;2023-04-08T12:46:32;11.70;99.90
3086;DHT22;52812;48.960;9.108;2023-04-08T12:48:58;11.60;99.90
3086;DHT22;52812;48.960;9.108;2023-04-08T12:51:23;11.80;99.90
3086;DHT22;52812;48.960;9.108;2023-04-08T12:53:51;11.80;99.90
3086;DHT22;52812;48.960;9.108;2023-04-08T12:56:17;12.00;99.90
3086;DHT22;52812;48.960;9.108;2023-04-08T12:58:42;12.10;99.90
3086;DHT22;52812;48.960;9.108;2023-04-08T13:01:08;12.00;99.90
3086;DHT22;52812;48.960;9.108;2023-04-08T13:03:33;12.00;99.90
3086;DHT22;52812;48.960;9.108;2023-04-08T13:06:00;12.10;99.90
3086;DHT22;52812;48.960;9.108;2023-04-08T13:08:26;12.10;99.90
3086;DHT22;52812;48.960;9.108;2023-04-08T13:10:52;12.40;99.90
3086;DHT22;52812;48.960;9.108;2023-04-08T13:13:17;12.30;99.90
3086;DHT22;52812;48.960;9.108;2023-04-08T13:15:43;12.20;99.90
3086;DHT22;52812;48.960;9.108;2023-04-08T13:18:08;12.20;99.90
3086;DHT22;52812;48.960;9.108;2023-04-08T13:20:34;12.40;99.90
3086;DHT22;52812;48.960;9.108;2023-04-08T13:23:00;12.30;99.90
3086;DHT22;52812;48.960;9.108;2023-04-08T13:25:26;12.40;99.90
3086;DHT22;52812;48.960;9.108;2023-04-08T13:27:52;12.40;99.90
3086;DHT22;52812;48.960;9.108;2023-04-08T13:30:17;12.30;99.90
3086;DHT22;52812;48.960;9.108;2023-04-08T13:32:43;12.20;99.90
3086;DHT22;52812;48.960;9.108;2023-04-08T13:35:09;12.00;99.90
3086;DHT22;52812;48.960;9.108;2023-04-08T13:37:34;12.00;99.90
3086;DHT22;52812;48.960;9.108;2023-04-08T13:40:00;12.20;99.90
3086;DHT22;52812;48.960;9.108;2023-04-08T13:42:26;12.10;99.90
3086;DHT22;52812;48.960;9.108;2023-04-08T13:44:52;12.10;99.90
3086;DHT22;52812;48.960;9.108;2023-04-08T13:47:17;12.00;99.90
3086;DHT22;52812;48.960;9.108;2023-04-08T13:49:43;12.00;99.90
3086;DHT22;52812;48.960;9.108;2023-04-08T13:52:09;11.80;99.90
3086;DHT22;52812;48.960;9.108;2023-04-08T13:54:34;11.70;99.90
3086;DHT22;52812;48.960;9.108;2023-04-08T13:57:00;11.90;99.90
3086;DHT22;52812;48.960;9.108;2023-04-08T13:59:26;12.00;99.90
3086;DHT22;52812;48.960;9.108;2023-04-08T14:01:51;12.20;99.90
3086;DHT22;52812;48.960;9.108;2023-04-08T14:04:22;12.30;99.90
3086;DHT22;52812;48.960;9.108;2023-04-08T14:06:48;12.40;99.90
3086;DHT22;52812;48.960;9.108;2023-04-08T14:09:18;12.60;99.90
3086;DHT22;52812;48.960;9.108;2023-04-08T14:11:44;12.60;99.90
3086;DHT22;52812;48.960;9.108;2023-04-08T14:14:10;12.60;99.90
3086;DHT22;52812;48.960;9.108;2023-04-08T14:16:35;12.50;99.90
3086;DHT22;52812;48.960;9.108;2023-04-08T14:19:01;12.30;99.90
3086;DHT22;52812;48.960;9.108;2023-04-08T14:21:27;12.30;99.90
3086;DHT22;52812;48.960;9.108;2023-04-08T14:23:53;12.30;99.90
3086;DHT22;52812;48.960;9.108;2023-04-08T14:26:19;12.30;99.90
3086;DHT22;52812;48.960;9.108;2023-04-08T14:28:45;12.20;99.90
3086;DHT22;52812;48.960;9.108;2023-04-08T14:31:12;12.20;99.90
3086;DHT22;52812;48.960;9.108;2023-04-08T14:33:38;12.10;99.90
3086;DHT22;52812;48.960;9.108;2023-04-08T14:36:04;12.10;99.90
3086;DHT22;52812;48.960;9.108;2023-04-08T14:38:30;12.10;99.90
3086;DHT22;52812;48.960;9.108;2023-04-08T14:40:56;12.20;99.90
3086;DHT22;52812;48.960;9.108;2023-04-08T14:43:21;12.20;99.90
3086;DHT22;52812;48.960;9.108;2023-04-08T14:45:49;12.10;99.90
3086;DHT22;52812;48.960;9.108;2023-04-08T14:48:15;12.00;99.90
3086;DHT22;52812;48.960;9.108;2023-04-08T14:50:40;12.00;99.90
3086;DHT22;52812;48.960;9.108;2023-04-08T14:53:06;11.90;99.90
3086;DHT22;52812;48.960;9.108;2023-04-08T14:55:31;11.90;99.90
3086;DHT22;52812;48.960;9.108;2023-04-08T14:57:57;11.90;99.90
3086;DHT22;52812;48.960;9.108;2023-04-08T15:00:23;11.90;99.90
3086;DHT22;52812;48.960;9.108;2023-04-08T15:02:48;11.80;99.90
3086;DHT22;52812;48.960;9.108;2023-04-08T15:05:14;11.70;99.90
3086;DHT22;52812;48.960;9.108;2023-04-08T15:07:40;11.70;99.90
3086;DHT22;52812;48.960;9.108;2023-04-08T15:10:06;11.80;99.90
3086;DHT22;52812;48.960;9.108;2023-04-08T15:12:32;11.80;99.90
3086;DHT22;52812;48.960;9.108;2023-04-08T15:14:57;11.80;99.90
3086;DHT22;52812;48.960;9.108;2023-04-08T15:17:23;11.70;99.90
3086;DHT22;52812;48.960;9.108;2023-04-08T15:19:50;11.80;99.90
3086;DHT22;52812;48.960;9.108;2023-04-08T15:22:16;11.70;99.90
3086;DHT22;52812;48.960;9.108;2023-04-08T15:24:42;11.70;99.90
3086;DHT22;52812;48.960;9.108;2023-04-08T15:27:07;11.70;99.90
3086;DHT22;52812;48.960;9.108;2023-04-08T15:29:33;11.70;99.90
3086;DHT22;52812;48.960;9.108;2023-04-08T15:31:58;11.60;99.90
3086;DHT22;52812;48.960;9.108;2023-04-08T15:34:24;11.40;99.90
3086;DHT22;52812;48.960;9.108;2023-04-08T15:36:49;11.40;99.90
3086;DHT22;52812;48.960;9.108;2023-04-08T15:39:15;11.40;99.90
3086;DHT22;52812;48.960;9.108;2023-04-08T15:41:40;11.30;99.90
3086;DHT22;52812;48.960;9.108;2023-04-08T15:44:06;11.20;99.90
3086;DHT22;52812;48.960;9.108;2023-04-08T15:46:32;11.00;99.90
3086;DHT22;52812;48.960;9.108;2023-04-08T15:48:57;11.00;99.90
3086;DHT22;52812;48.960;9.108;2023-04-08T15:51:23;11.00;99.90
3086;DHT22;52812;48.960;9.108;2023-04-08T15:53:48;11.00;99.90
3086;DHT22;52812;48.960;9.108;2023-04-08T15:56:16;11.10;99.90
3086;DHT22;52812;48.960;9.108;2023-04-08T15:58:43;11.10;99.90
3086;DHT22;52812;48.960;9.108;2023-04-08T16:01:08;11.00;99.90
3086;DHT22;52812;48.960;9.108;2023-04-08T16:03:34;11.00;99.90
3086;DHT22;52812;48.960;9.108;2023-04-08T16:06:00;10.90;99.90
3086;DHT22;52812;48.960;9.108;2023-04-08T16:08:26;10.90;99.90
3086;DHT22;52812;48.960;9.108;2023-04-08T16:10:51;10.90;99.90
3086;DHT22;52812;48.960;9.108;2023-04-08T16:13:17;10.80;99.90
3086;DHT22;52812;48.960;9.108;2023-04-08T16:15:43;10.80;99.90
3086;DHT22;52812;48.960;9.108;2023-04-08T16:18:09;10.70;99.90